Terminal Aerodrome Forecast
Issued by NWS

Home | Current Version | Previous Version | Text Only | Print | Product List | Glossary On
Versions: 1 2 3 4 5 6 7 8 9 10 11 12 13 14 15 16
000
FTUS46 KSTO 211140
TAFSCK
TAF
KSCK 211140Z 2112/2212 15007KT P6SM -SHRA BKN050
     FM212100 15010KT P6SM -SHRA OVC050
     FM220600 14020KT P6SM -RA OVC030
     FM220900 14025KT P6SM RA OVC015=

USA.gov is the U.S. government's official web portal to all federal, state and local government web resources and services.